createdAt,value
2018-10-01T00:00:38.676Z,0.00
2018-10-01T00:01:38.644Z,0.00
2018-10-01T00:02:38.611Z,0.00
2018-10-01T00:03:38.580Z,0.00
2018-10-01T00:04:38.552Z,0.00
2018-10-01T00:05:38.516Z,0.00
2018-10-01T00:06:38.485Z,0.00
2018-10-01T00:07:38.453Z,0.00
2018-10-01T00:08:38.421Z,0.00
2018-10-01T00:09:38.390Z,0.00
2018-10-01T00:10:38.357Z,0.00
2018-10-01T00:11:38.326Z,0.00
2018-10-01T00:12:38.295Z,0.00
2018-10-01T00:13:39.110Z,0.00
2018-10-01T00:14:38.233Z,0.00
2018-10-01T00:15:39.109Z,0.00
2018-10-01T00:16:38.168Z,0.00
2018-10-01T00:17:38.134Z,0.00
2018-10-01T00:18:38.106Z,0.00
2018-10-01T00:19:38.072Z,0.00
2018-10-01T00:20:38.040Z,0.00
2018-10-01T00:21:38.008Z,0.00
2018-10-01T00:22:37.976Z,0.00
2018-10-01T00:23:37.945Z,0.00
2018-10-01T00:24:37.912Z,0.00
2018-10-01T00:25:37.883Z,0.00
2018-10-01T00:26:37.851Z,0.00
2018-10-01T00:27:37.818Z,0.00
2018-10-01T00:28:37.786Z,0.00
2018-10-01T00:29:37.758Z,0.00
2018-10-01T00:30:37.725Z,0.00
2018-10-01T00:31:37.692Z,0.00
2018-10-01T00:32:37.660Z,0.00
2018-10-01T00:33:37.628Z,0.00
2018-10-01T00:34:37.596Z,0.00
2018-10-01T00:35:37.564Z,0.00
2018-10-01T00:36:37.533Z,0.00
2018-10-01T00:37:37.500Z,0.00
2018-10-01T00:38:37.475Z,0.00
2018-10-01T00:39:37.438Z,0.00
2018-10-01T00:40:37.407Z,0.00
2018-10-01T00:41:37.376Z,0.00
2018-10-01T00:42:37.343Z,0.00
2018-10-01T00:43:37.310Z,0.00
2018-10-01T00:44:37.280Z,0.00
2018-10-01T00:45:37.247Z,0.00
2018-10-01T00:46:37.218Z,0.00
2018-10-01T00:47:37.183Z,0.00
2018-10-01T00:48:37.152Z,0.00
2018-10-01T00:49:37.122Z,0.00
2018-10-01T00:50:37.090Z,0.00
2018-10-01T00:51:37.057Z,0.00
2018-10-01T00:52:37.026Z,0.00
2018-10-01T00:53:36.994Z,0.00
2018-10-01T00:54:36.965Z,0.00
2018-10-01T00:55:36.932Z,0.00
2018-10-01T00:56:36.899Z,0.00
2018-10-01T00:57:36.869Z,0.00
2018-10-01T00:58:36.840Z,0.00
2018-10-01T00:59:36.809Z,0.00
2018-10-01T01:00:36.772Z,0.00
2018-10-01T01:01:36.741Z,0.00
2018-10-01T01:02:36.711Z,0.00
2018-10-01T01:03:36.679Z,0.00
2018-10-01T01:04:36.646Z,0.00
2018-10-01T01:05:36.616Z,0.00
2018-10-01T01:06:36.585Z,0.00
2018-10-01T01:07:36.553Z,0.00
2018-10-01T01:08:36.521Z,0.00
2018-10-01T01:09:36.490Z,0.00
2018-10-01T01:10:36.457Z,0.00
2018-10-01T01:11:36.427Z,0.00
2018-10-01T01:12:36.395Z,0.00
2018-10-01T01:13:36.364Z,0.00
2018-10-01T01:14:36.335Z,0.00
2018-10-01T01:15:36.302Z,0.00
2018-10-01T01:16:36.269Z,0.00
2018-10-01T01:17:36.239Z,0.00
2018-10-01T01:18:36.207Z,0.00
2018-10-01T01:19:36.172Z,0.00
2018-10-01T01:20:36.146Z,0.00
2018-10-01T01:21:36.113Z,0.00
2018-10-01T01:22:36.081Z,0.00
2018-10-01T01:23:36.052Z,0.00
2018-10-01T01:24:36.021Z,0.00
2018-10-01T01:25:35.989Z,0.00
2018-10-01T01:26:35.957Z,0.00
2018-10-01T01:27:35.927Z,0.00
2018-10-01T01:28:35.895Z,0.00
2018-10-01T01:29:35.864Z,0.00
2018-10-01T01:30:35.831Z,0.00
2018-10-01T01:31:35.802Z,0.00
2018-10-01T01:32:35.770Z,0.00
2018-10-01T01:33:35.740Z,0.00
2018-10-01T01:34:35.706Z,0.00
2018-10-01T01:35:35.676Z,0.00
2018-10-01T01:36:35.644Z,0.00
2018-10-01T01:37:35.614Z,0.00
2018-10-01T01:38:35.581Z,0.00
2018-10-01T01:39:35.550Z,0.00
2018-10-01T01:40:35.521Z,0.00
2018-10-01T01:41:35.490Z,0.00
2018-10-01T01:42:35.459Z,0.00
2018-10-01T01:43:35.427Z,0.00
2018-10-01T01:44:35.397Z,0.00
2018-10-01T01:45:35.365Z,0.00
2018-10-01T01:46:35.335Z,0.00
2018-10-01T01:47:35.303Z,0.00
2018-10-01T01:48:35.273Z,0.00
2018-10-01T01:49:35.241Z,0.00
2018-10-01T01:50:35.211Z,0.00
2018-10-01T01:51:35.177Z,0.00
2018-10-01T01:52:35.148Z,0.00
2018-10-01T01:53:35.117Z,0.00
2018-10-01T01:54:35.088Z,0.00
2018-10-01T01:55:35.058Z,0.00
2018-10-01T01:56:35.026Z,0.00
2018-10-01T01:57:34.999Z,0.00
2018-10-01T01:58:34.964Z,0.00
2018-10-01T01:59:34.933Z,0.00
2018-10-01T02:00:34.903Z,0.00
2018-10-01T02:01:34.871Z,0.00
2018-10-01T02:02:34.839Z,0.00
2018-10-01T02:03:34.807Z,0.00
2018-10-01T02:04:34.777Z,0.00
2018-10-01T02:05:34.745Z,0.00
2018-10-01T02:06:34.715Z,0.00
2018-10-01T02:07:34.685Z,0.00
2018-10-01T02:08:34.654Z,0.00
2018-10-01T02:09:34.622Z,0.00
2018-10-01T02:10:34.594Z,0.00
2018-10-01T02:11:34.562Z,0.00
2018-10-01T02:12:34.530Z,0.00
2018-10-01T02:13:34.501Z,0.00
2018-10-01T02:14:34.472Z,0.00
2018-10-01T02:15:34.440Z,0.00
2018-10-01T02:16:34.406Z,0.00
2018-10-01T02:17:34.377Z,0.00
2018-10-01T02:18:34.346Z,0.00
2018-10-01T02:19:34.316Z,0.00
2018-10-01T02:20:34.286Z,0.00
2018-10-01T02:21:34.261Z,0.00
2018-10-01T02:22:34.227Z,0.00
2018-10-01T02:23:34.194Z,0.00
2018-10-01T02:24:34.164Z,0.00
2018-10-01T02:25:34.132Z,0.00
2018-10-01T02:26:34.102Z,0.00
2018-10-01T02:27:34.070Z,0.00
2018-10-01T02:28:34.039Z,0.00
2018-10-01T02:29:34.012Z,0.00
2018-10-01T02:30:33.979Z,0.00
2018-10-01T02:31:33.947Z,0.00
2018-10-01T02:32:33.917Z,0.00
2018-10-01T02:33:33.890Z,0.00
2018-10-01T02:34:33.857Z,0.00
2018-10-01T02:35:33.822Z,0.00
2018-10-01T02:36:33.796Z,0.00
2018-10-01T02:37:33.764Z,0.00
2018-10-01T02:38:33.737Z,0.00
2018-10-01T02:39:33.707Z,0.00
2018-10-01T02:40:33.673Z,0.00
2018-10-01T02:41:33.644Z,0.00
2018-10-01T02:42:33.612Z,0.00
2018-10-01T02:43:33.581Z,0.00
2018-10-01T02:44:33.553Z,0.00
2018-10-01T02:45:33.520Z,0.00
2018-10-01T02:46:33.489Z,0.00
2018-10-01T02:47:33.501Z,0.00
2018-10-01T02:48:33.428Z,0.00
2018-10-01T02:49:33.398Z,0.00
2018-10-01T02:50:33.366Z,0.00
2018-10-01T02:51:33.335Z,0.00
2018-10-01T02:52:33.304Z,0.00
2018-10-01T02:53:33.276Z,0.00
2018-10-01T02:54:33.245Z,0.00
2018-10-01T02:55:33.213Z,0.00
2018-10-01T02:56:33.183Z,0.00
2018-10-01T02:57:33.151Z,0.00
2018-10-01T02:58:33.121Z,0.00
2018-10-01T02:59:33.091Z,0.00
2018-10-01T03:00:33.059Z,0.00
2018-10-01T03:01:33.030Z,0.00
2018-10-01T03:02:33.000Z,0.00
2018-10-01T03:03:32.968Z,0.00
2018-10-01T03:04:32.937Z,0.00
2018-10-01T03:05:32.909Z,0.00
2018-10-01T03:06:32.878Z,0.00
2018-10-01T03:07:32.845Z,0.00
2018-10-01T03:08:32.816Z,0.00
2018-10-01T03:09:32.784Z,0.00
2018-10-01T03:10:32.755Z,0.00
2018-10-01T03:11:32.723Z,0.00
2018-10-01T03:12:32.692Z,0.00
2018-10-01T03:13:32.664Z,0.00
2018-10-01T03:14:32.634Z,0.00
2018-10-01T03:15:32.602Z,0.00
2018-10-01T03:16:32.570Z,0.00
2018-10-01T03:17:32.541Z,0.00
2018-10-01T03:18:32.510Z,0.00
2018-10-01T03:19:32.482Z,0.00
2018-10-01T03:20:32.449Z,0.00
2018-10-01T03:21:32.418Z,0.00
2018-10-01T03:22:32.388Z,0.00
2018-10-01T03:23:32.356Z,0.00
2018-10-01T03:24:32.328Z,0.00
2018-10-01T03:25:32.296Z,0.00
2018-10-01T03:26:32.268Z,0.00
2018-10-01T03:27:32.236Z,0.00
2018-10-01T03:28:32.205Z,0.00
2018-10-01T03:29:32.175Z,0.00
2018-10-01T03:30:32.145Z,0.00
2018-10-01T03:31:32.112Z,0.00
2018-10-01T03:32:32.082Z,0.00
2018-10-01T03:33:32.054Z,0.00
2018-10-01T03:34:32.024Z,0.00
2018-10-01T03:35:31.992Z,0.00
2018-10-01T03:36:31.961Z,0.00
2018-10-01T03:37:31.932Z,0.00
2018-10-01T03:38:31.902Z,0.00
2018-10-01T03:39:31.870Z,0.00
2018-10-01T03:40:31.846Z,0.00
2018-10-01T03:41:31.809Z,0.00
2018-10-01T03:42:31.780Z,0.00
2018-10-01T03:43:31.751Z,0.00
2018-10-01T03:44:31.720Z,0.00
2018-10-01T03:45:31.688Z,0.00
2018-10-01T03:46:31.659Z,0.00
2018-10-01T03:47:31.625Z,0.00
2018-10-01T03:48:31.599Z,0.00
2018-10-01T03:49:31.566Z,0.00
2018-10-01T03:50:31.536Z,0.00
2018-10-01T03:51:32.138Z,0.00
2018-10-01T03:52:31.473Z,0.00
2018-10-01T03:53:31.445Z,0.00
2018-10-01T03:54:31.413Z,0.00
2018-10-01T03:55:31.381Z,0.00
2018-10-01T03:56:31.350Z,0.00
2018-10-01T03:57:31.322Z,0.00
2018-10-01T03:58:31.290Z,0.00
2018-10-01T03:59:31.260Z,0.00
2018-10-01T04:00:31.234Z,0.00
2018-10-01T04:01:31.200Z,0.00
2018-10-01T04:02:32.139Z,0.00
2018-10-01T04:03:31.137Z,0.00
2018-10-01T04:04:31.106Z,0.00
2018-10-01T04:05:31.076Z,0.00
2018-10-01T04:06:31.048Z,0.00
2018-10-01T04:07:31.013Z,0.00
2018-10-01T04:08:30.983Z,0.00
2018-10-01T04:09:30.953Z,0.00
2018-10-01T04:10:30.921Z,0.00
2018-10-01T04:11:30.892Z,0.00
2018-10-01T04:12:30.860Z,0.00
2018-10-01T04:13:31.641Z,0.00
2018-10-01T04:14:30.801Z,0.00
2018-10-01T04:15:30.770Z,0.00
2018-10-01T04:16:30.742Z,0.00
2018-10-01T04:17:30.708Z,0.00
2018-10-01T04:18:30.677Z,0.00
2018-10-01T04:19:30.645Z,0.00
2018-10-01T04:20:30.617Z,0.00
2018-10-01T04:21:30.585Z,0.00
2018-10-01T04:22:30.550Z,0.00
2018-10-01T04:23:30.524Z,0.00
2018-10-01T04:24:30.492Z,0.00
2018-10-01T04:25:30.469Z,0.00
2018-10-01T04:26:30.431Z,0.00
2018-10-01T04:27:30.401Z,0.00
2018-10-01T04:28:30.370Z,0.00
2018-10-01T04:29:30.341Z,0.00
2018-10-01T04:30:30.309Z,0.00
2018-10-01T04:31:30.277Z,0.00
2018-10-01T04:32:30.250Z,0.00
2018-10-01T04:33:30.217Z,0.00
2018-10-01T04:34:30.183Z,0.00
2018-10-01T04:35:30.156Z,0.00
2018-10-01T04:36:30.129Z,0.00
2018-10-01T04:37:30.094Z,0.00
2018-10-01T04:38:30.065Z,0.00
2018-10-01T04:39:30.034Z,0.00
2018-10-01T04:40:30.031Z,0.00
2018-10-01T04:41:29.973Z,0.00
2018-10-01T04:42:29.942Z,0.00
2018-10-01T04:43:29.911Z,0.00
2018-10-01T04:44:29.880Z,0.00
2018-10-01T04:45:29.851Z,0.00
2018-10-01T04:46:29.820Z,0.00
2018-10-01T04:47:29.788Z,0.00
2018-10-01T04:48:29.756Z,0.00
2018-10-01T04:49:29.728Z,0.00
2018-10-01T04:50:29.696Z,0.00
2018-10-01T04:51:29.664Z,0.00
2018-10-01T04:52:29.634Z,0.00
2018-10-01T04:53:29.604Z,0.00
2018-10-01T04:54:29.572Z,0.00
2018-10-01T04:55:29.544Z,0.00
2018-10-01T04:56:29.511Z,0.00
2018-10-01T04:57:29.480Z,0.00
2018-10-01T04:58:29.641Z,0.00
2018-10-01T04:59:29.421Z,0.00
2018-10-01T05:00:37.305Z,0.00
2018-10-01T05:02:23.003Z,0.00
2018-10-01T05:03:22.942Z,0.00
2018-10-01T05:05:16.061Z,0.00
2018-10-01T05:06:16.065Z,0.00
2018-10-01T05:08:08.830Z,0.00
2018-10-01T05:09:08.773Z,0.00
2018-10-01T05:11:01.891Z,0.00
2018-10-01T05:12:01.835Z,5.63
2018-10-01T05:13:55.156Z,5.63
2018-10-01T05:14:55.180Z,5.63
2018-10-01T05:16:47.924Z,5.63
2018-10-01T05:17:47.868Z,5.63
2018-10-01T05:19:40.669Z,11.25
2018-10-01T05:20:40.639Z,11.25
2018-10-01T05:21:40.606Z,11.25
2018-10-01T05:22:40.576Z,11.25
2018-10-01T05:23:40.545Z,16.88
2018-10-01T05:24:40.514Z,16.88
2018-10-01T05:25:40.484Z,16.88
2018-10-01T05:26:40.452Z,16.88
2018-10-01T05:27:40.423Z,22.50
2018-10-01T05:28:40.390Z,22.50
2018-10-01T05:29:40.361Z,22.50
2018-10-01T05:30:40.330Z,22.50
2018-10-01T05:31:40.301Z,22.50
2018-10-01T05:32:40.270Z,22.50
2018-10-01T05:33:40.239Z,22.50
2018-10-01T05:34:40.209Z,22.50
2018-10-01T05:35:40.178Z,22.50
2018-10-01T05:36:40.150Z,22.50
2018-10-01T05:37:40.133Z,22.50
2018-10-01T05:38:40.183Z,22.50
2018-10-01T05:39:40.056Z,22.50
2018-10-01T05:40:40.028Z,22.50
2018-10-01T05:41:40.000Z,22.50
2018-10-01T05:42:40.012Z,28.13
2018-10-01T05:43:40.023Z,28.13
2018-10-01T05:44:39.905Z,28.13
2018-10-01T05:45:39.872Z,28.13
2018-10-01T05:46:39.843Z,28.13
2018-10-01T05:47:39.812Z,33.75
2018-10-01T05:48:39.781Z,33.75
2018-10-01T05:49:39.752Z,33.75
2018-10-01T05:50:39.720Z,33.75
2018-10-01T05:51:40.272Z,39.38
2018-10-01T05:52:39.668Z,39.38
2018-10-01T05:53:40.276Z,45.00
2018-10-01T05:54:39.599Z,45.00
2018-10-01T05:55:39.568Z,45.00
2018-10-01T05:56:39.540Z,50.63
2018-10-01T05:57:39.569Z,56.25
2018-10-01T05:58:39.477Z,56.25
2018-10-01T05:59:39.447Z,61.88
2018-10-01T06:00:39.419Z,67.50
2018-10-01T06:01:39.385Z,73.13
2018-10-01T06:02:39.355Z,78.75
2018-10-01T06:03:39.325Z,78.75
2018-10-01T06:04:39.313Z,84.38
2018-10-01T06:05:39.264Z,90.00
2018-10-01T06:06:39.232Z,90.00
2018-10-01T06:07:39.205Z,90.00
2018-10-01T06:08:39.171Z,95.63
2018-10-01T06:09:39.143Z,95.63
2018-10-01T06:10:39.110Z,95.63
2018-10-01T06:11:39.082Z,95.63
2018-10-01T06:12:39.052Z,101.25
2018-10-01T06:13:39.021Z,101.25
2018-10-01T06:14:38.999Z,112.50
2018-10-01T06:16:38.929Z,118.13
2018-10-01T06:17:38.900Z,129.38
2018-10-01T06:18:38.869Z,135.00
2018-10-01T06:19:38.841Z,123.75
2018-10-01T06:20:38.809Z,129.38
2018-10-01T06:21:38.779Z,129.38
2018-10-01T06:22:38.748Z,135.00
2018-10-01T06:23:38.726Z,140.63
2018-10-01T06:24:39.282Z,146.25
2018-10-01T06:25:38.662Z,146.25
2018-10-01T06:26:38.630Z,146.25
2018-10-01T06:27:38.603Z,140.63
2018-10-01T06:28:38.569Z,140.63
2018-10-01T06:29:38.538Z,140.63
2018-10-01T06:30:38.511Z,146.25
2018-10-01T06:31:38.484Z,151.88
2018-10-01T06:32:38.451Z,151.88
2018-10-01T06:33:38.420Z,151.88
2018-10-01T06:34:38.390Z,151.88
2018-10-01T06:35:38.362Z,151.88
2018-10-01T06:36:38.331Z,151.88
2018-10-01T06:37:38.300Z,146.25
2018-10-01T06:38:38.274Z,140.63
2018-10-01T06:39:38.243Z,135.00
2018-10-01T06:40:38.212Z,123.75
2018-10-01T06:41:38.216Z,118.13
2018-10-01T06:42:38.154Z,112.50
2018-10-01T06:43:38.125Z,112.50
2018-10-01T06:44:38.095Z,106.88
2018-10-01T06:45:38.065Z,101.25
2018-10-01T06:46:38.037Z,101.25
2018-10-01T06:47:38.007Z,95.63
2018-10-01T06:48:37.976Z,90.00
2018-10-01T06:49:37.946Z,90.00
2018-10-01T06:50:37.924Z,84.38
2018-10-01T06:51:37.892Z,84.38
2018-10-01T06:52:37.857Z,84.38
2018-10-01T06:53:37.830Z,84.38
2018-10-01T06:54:37.801Z,84.38
2018-10-01T06:55:37.773Z,78.75
2018-10-01T06:56:37.741Z,78.75
2018-10-01T06:57:37.762Z,73.13
2018-10-01T06:58:37.762Z,73.13
2018-10-01T06:59:37.652Z,67.50
2018-10-01T07:00:37.649Z,67.50
2018-10-01T07:01:37.602Z,67.50
2018-10-01T07:02:37.618Z,67.50
2018-10-01T07:03:37.581Z,73.13
2018-10-01T07:04:37.560Z,67.50
2018-10-01T07:05:37.549Z,67.50
2018-10-01T07:06:37.475Z,67.50
2018-10-01T07:07:37.421Z,61.88
2018-10-01T07:08:37.383Z,61.88
2018-10-01T07:09:37.356Z,61.88
2018-10-01T07:10:37.331Z,56.25
2018-10-01T07:11:37.383Z,50.63
2018-10-01T07:12:37.279Z,50.63
2018-10-01T07:13:37.251Z,50.63
2018-10-01T07:14:37.210Z,50.63
2018-10-01T07:15:37.177Z,50.63
2018-10-01T07:16:37.154Z,56.25
2018-10-01T07:17:37.122Z,61.88
2018-10-01T07:18:37.088Z,73.13
2018-10-01T07:19:37.059Z,84.38
2018-10-01T07:20:37.030Z,90.00
2018-10-01T07:21:36.999Z,106.88
2018-10-01T07:22:37.014Z,118.13
2018-10-01T07:23:36.937Z,129.38
2018-10-01T07:24:36.915Z,135.00
2018-10-01T07:25:36.882Z,146.25
2018-10-01T07:26:36.853Z,151.88
2018-10-01T07:27:36.826Z,157.50
2018-10-01T07:28:36.791Z,163.13
2018-10-01T07:29:36.760Z,168.75
2018-10-01T07:30:36.734Z,168.75
2018-10-01T07:31:36.704Z,163.13
2018-10-01T07:32:36.673Z,163.13
2018-10-01T07:33:37.288Z,151.88
2018-10-01T07:34:36.613Z,146.25
2018-10-01T07:35:36.585Z,140.63
2018-10-01T07:36:36.556Z,140.63
2018-10-01T07:37:36.524Z,140.63
2018-10-01T07:38:36.497Z,135.00
2018-10-01T07:39:36.466Z,129.38
2018-10-01T07:40:36.437Z,135.00
2018-10-01T07:41:36.405Z,135.00
2018-10-01T07:42:36.377Z,140.63
2018-10-01T07:43:36.348Z,146.25
2018-10-01T07:44:36.362Z,151.88
2018-10-01T07:45:36.288Z,163.13
2018-10-01T07:46:36.260Z,174.38
2018-10-01T07:47:36.249Z,180.00
2018-10-01T07:48:36.209Z,185.63
2018-10-01T07:49:36.170Z,191.25
2018-10-01T07:50:36.175Z,191.25
2018-10-01T07:51:36.112Z,191.25
2018-10-01T07:52:36.083Z,191.25
2018-10-01T07:53:36.122Z,196.88
2018-10-01T07:54:36.025Z,202.50
2018-10-01T07:55:35.994Z,196.88
2018-10-01T07:56:35.966Z,191.25
2018-10-01T07:57:35.958Z,185.63
2018-10-01T07:58:35.909Z,185.63
2018-10-01T07:59:35.949Z,180.00
2018-10-01T08:00:35.847Z,185.63
2018-10-01T08:01:35.820Z,191.25
2018-10-01T08:02:35.857Z,196.88
2018-10-01T08:03:35.762Z,202.50
2018-10-01T08:04:35.731Z,208.13
2018-10-01T08:05:35.742Z,208.13
2018-10-01T08:06:35.673Z,202.50
2018-10-01T08:07:35.643Z,185.63
2018-10-01T08:08:35.667Z,168.75
2018-10-01T08:09:35.599Z,157.50
2018-10-01T08:10:36.297Z,163.13
2018-10-01T08:11:35.530Z,174.38
2018-10-01T08:12:35.499Z,185.63
2018-10-01T08:13:35.469Z,196.88
2018-10-01T08:14:35.487Z,202.50
2018-10-01T08:15:35.626Z,191.25
2018-10-01T08:16:35.479Z,180.00
2018-10-01T08:17:37.287Z,174.38
2018-10-01T08:18:35.324Z,168.75
2018-10-01T08:19:35.297Z,168.75
2018-10-01T08:20:35.355Z,163.13
2018-10-01T08:21:35.238Z,163.13
2018-10-01T08:22:35.210Z,157.50
2018-10-01T08:23:35.189Z,157.50
2018-10-01T08:24:35.151Z,157.50
2018-10-01T08:25:35.125Z,146.25
2018-10-01T08:26:35.190Z,146.25
2018-10-01T08:27:35.067Z,146.25
2018-10-01T08:28:35.037Z,146.25
2018-10-01T08:29:35.111Z,151.88
2018-10-01T08:30:34.979Z,151.88
2018-10-01T08:31:34.951Z,151.88
2018-10-01T08:32:34.952Z,157.50
2018-10-01T08:33:34.897Z,157.50
2018-10-01T08:34:34.864Z,157.50
2018-10-01T08:35:34.896Z,157.50
2018-10-01T08:36:34.805Z,157.50
2018-10-01T08:37:34.777Z,157.50
2018-10-01T08:38:34.870Z,151.88
2018-10-01T08:39:34.727Z,151.88
2018-10-01T08:40:34.695Z,140.63
2018-10-01T08:41:34.688Z,135.00
2018-10-01T08:42:34.633Z,118.13
2018-10-01T08:43:34.608Z,112.50
2018-10-01T08:44:34.637Z,106.88
2018-10-01T08:45:34.544Z,101.25
2018-10-01T08:46:35.304Z,101.25
2018-10-01T08:47:34.562Z,106.88
2018-10-01T08:48:34.460Z,106.88
2018-10-01T08:49:34.429Z,112.50
2018-10-01T08:50:34.439Z,112.50
2018-10-01T08:51:34.396Z,112.50
2018-10-01T08:52:34.348Z,112.50
2018-10-01T08:53:34.357Z,106.88
2018-10-01T08:54:34.283Z,106.88
2018-10-01T08:55:34.260Z,106.88
2018-10-01T08:56:34.297Z,112.50
2018-10-01T08:57:34.200Z,118.13
2018-10-01T08:58:34.174Z,123.75
2018-10-01T08:59:34.208Z,135.00
2018-10-01T09:00:34.116Z,140.63
2018-10-01T09:01:34.083Z,151.88
2018-10-01T09:02:34.114Z,157.50
2018-10-01T09:03:34.028Z,163.13
2018-10-01T09:04:34.013Z,163.13
2018-10-01T09:05:34.063Z,151.88
2018-10-01T09:06:33.937Z,146.25
2018-10-01T09:07:33.905Z,146.25
2018-10-01T09:08:33.912Z,146.25
2018-10-01T09:09:34.806Z,151.88
2018-10-01T09:10:33.820Z,163.13
2018-10-01T09:11:33.815Z,180.00
2018-10-01T09:12:33.764Z,196.88
2018-10-01T09:13:33.737Z,202.50
2018-10-01T09:14:33.859Z,208.13
2018-10-01T09:15:33.676Z,213.75
2018-10-01T09:16:33.648Z,208.13
2018-10-01T09:17:33.648Z,196.88
2018-10-01T09:18:33.591Z,185.63
2018-10-01T09:19:33.564Z,180.00
2018-10-01T09:20:33.569Z,185.63
2018-10-01T09:21:33.507Z,191.25
2018-10-01T09:22:33.496Z,202.50
2018-10-01T09:23:33.502Z,219.38
2018-10-01T09:24:33.415Z,230.63
2018-10-01T09:25:33.387Z,258.75
2018-10-01T09:26:33.369Z,281.25
2018-10-01T09:27:33.332Z,292.50
2018-10-01T09:28:33.299Z,298.13
2018-10-01T09:29:33.323Z,303.75
2018-10-01T09:30:33.242Z,303.75
2018-10-01T09:31:33.213Z,303.75
2018-10-01T09:32:33.242Z,303.75
2018-10-01T09:33:33.159Z,298.13
2018-10-01T09:34:33.127Z,292.50
2018-10-01T09:35:33.194Z,292.50
2018-10-01T09:36:33.069Z,292.50
2018-10-01T09:37:33.041Z,292.50
2018-10-01T09:38:33.075Z,298.13
2018-10-01T09:39:32.983Z,298.13
2018-10-01T09:40:32.985Z,286.88
2018-10-01T09:41:32.931Z,270.00
2018-10-01T09:42:32.901Z,264.38
2018-10-01T09:43:32.871Z,258.75
2018-10-01T09:44:32.914Z,258.75
2018-10-01T09:45:32.819Z,258.75
2018-10-01T09:46:32.833Z,270.00
2018-10-01T09:47:32.759Z,281.25
2018-10-01T09:48:32.730Z,292.50
2018-10-01T09:49:32.701Z,292.50
2018-10-01T09:50:32.732Z,281.25
2018-10-01T09:51:32.645Z,281.25
2018-10-01T09:52:32.662Z,281.25
2018-10-01T09:53:32.634Z,281.25
2018-10-01T09:54:32.561Z,281.25
2018-10-01T09:55:32.530Z,281.25
2018-10-01T09:56:32.557Z,275.63
2018-10-01T09:57:32.475Z,270.00
2018-10-01T09:58:32.501Z,264.38
2018-10-01T09:59:32.420Z,264.38
2018-10-01T10:00:32.392Z,264.38
2018-10-01T10:01:32.362Z,270.00
2018-10-01T10:02:32.356Z,275.63
2018-10-01T10:03:32.308Z,270.00
2018-10-01T10:04:32.396Z,270.00
2018-10-01T10:05:32.250Z,270.00
2018-10-01T10:06:32.224Z,270.00
2018-10-01T10:07:32.193Z,264.38
2018-10-01T10:08:32.284Z,264.38
2018-10-01T10:09:32.138Z,264.38
2018-10-01T10:10:32.158Z,264.38
2018-10-01T10:11:32.147Z,264.38
2018-10-01T10:12:32.054Z,270.00
2018-10-01T10:13:32.032Z,275.63
2018-10-01T10:14:32.083Z,281.25
2018-10-01T10:15:31.973Z,292.50
2018-10-01T10:16:31.998Z,298.13
2018-10-01T10:17:31.915Z,303.75
2018-10-01T10:18:31.887Z,303.75
2018-10-01T10:19:31.867Z,303.75
2018-10-01T10:20:31.886Z,298.13
2018-10-01T10:21:31.804Z,292.50
2018-10-01T10:22:31.782Z,292.50
2018-10-01T10:23:31.750Z,298.13
2018-10-01T10:24:31.730Z,303.75
2018-10-01T10:25:31.699Z,315.00
2018-10-01T10:26:31.694Z,292.50
2018-10-01T10:27:31.637Z,286.88
2018-10-01T10:28:31.629Z,286.88
2018-10-01T10:29:31.589Z,286.88
2018-10-01T10:30:31.610Z,281.25
2018-10-01T10:31:31.525Z,286.88
2018-10-01T10:32:31.554Z,298.13
2018-10-01T10:33:31.525Z,298.13
2018-10-01T10:34:31.563Z,298.13
2018-10-01T10:35:31.471Z,292.50
2018-10-01T10:36:31.387Z,292.50
2018-10-01T10:37:31.359Z,292.50
2018-10-01T10:38:31.378Z,303.75
2018-10-01T10:39:31.319Z,315.00
2018-10-01T10:40:31.279Z,326.25
2018-10-01T10:41:31.254Z,326.25
2018-10-01T10:42:31.292Z,320.63
2018-10-01T10:43:31.194Z,315.00
2018-10-01T10:44:31.227Z,320.63
2018-10-01T10:45:31.143Z,331.88
2018-10-01T10:46:31.112Z,337.50
2018-10-01T10:47:31.086Z,343.13
2018-10-01T10:48:31.082Z,343.13
2018-10-01T10:49:31.030Z,348.75
2018-10-01T10:50:34.045Z,343.13
2018-10-01T10:51:31.017Z,337.50
2018-10-01T10:52:30.952Z,337.50
2018-10-01T10:53:31.766Z,337.50
2018-10-01T10:54:30.895Z,348.75
2018-10-01T10:55:30.869Z,500.63
2018-10-01T10:57:30.835Z,427.50
2018-10-01T10:58:30.871Z,388.13
2018-10-01T10:59:30.938Z,365.63
2018-10-01T11:00:30.806Z,360.00
2018-10-01T11:01:30.731Z,360.00
2018-10-01T11:02:30.742Z,360.00
2018-10-01T11:03:30.655Z,343.13
2018-10-01T11:04:30.651Z,337.50
2018-10-01T11:06:30.945Z,292.50
2018-10-01T11:07:32.524Z,264.38
2018-10-01T11:08:30.789Z,241.88
2018-10-01T11:09:32.380Z,230.63
2018-10-01T11:10:30.836Z,219.38
2018-10-01T11:11:30.440Z,213.75
2018-10-01T11:12:30.433Z,213.75
2018-10-01T11:13:32.331Z,219.38
2018-10-01T11:14:30.388Z,213.75
2018-10-01T11:15:30.396Z,208.13
2018-10-01T11:16:30.315Z,196.88
2018-10-01T11:17:30.327Z,191.25
2018-10-01T11:18:30.314Z,180.00
2018-10-01T11:19:30.225Z,168.75
2018-10-01T11:20:30.262Z,163.13
2018-10-01T11:21:30.344Z,163.13
2018-10-01T11:22:30.152Z,163.13
2018-10-01T11:23:30.167Z,157.50
2018-10-01T11:24:30.252Z,168.75
2018-10-01T11:25:30.114Z,168.75
2018-10-01T11:26:30.056Z,180.00
2018-10-01T11:27:31.887Z,196.88
2018-10-01T11:28:29.999Z,213.75
2018-10-01T11:29:29.966Z,230.63
2018-10-01T11:30:30.829Z,241.88
2018-10-01T11:31:29.915Z,258.75
2018-10-01T11:32:29.871Z,264.38
2018-10-01T11:33:30.182Z,270.00
2018-10-01T11:34:34.644Z,275.63
2018-10-01T11:35:30.182Z,281.25
2018-10-01T11:36:33.653Z,281.25
2018-10-01T11:37:34.783Z,281.25
2018-10-01T11:38:29.706Z,281.25
2018-10-01T11:39:29.727Z,286.88
2018-10-01T11:40:29.697Z,281.25
2018-10-01T11:41:29.723Z,281.25
2018-10-01T11:42:29.592Z,281.25
2018-10-01T11:43:29.569Z,281.25
2018-10-01T11:44:29.542Z,281.25
2018-10-01T11:45:29.554Z,275.63
2018-10-01T11:46:29.485Z,275.63
2018-10-01T11:47:29.459Z,264.38
2018-10-01T11:48:29.433Z,247.50
2018-10-01T11:49:29.404Z,241.88
2018-10-01T11:50:29.381Z,247.50
2018-10-01T11:51:29.450Z,253.13
2018-10-01T11:52:29.361Z,264.38
2018-10-01T11:53:29.302Z,275.63
2018-10-01T11:54:29.338Z,281.25
2018-10-01T11:55:29.242Z,303.75
2018-10-01T11:56:29.218Z,303.75
2018-10-01T11:57:29.224Z,298.13
2018-10-01T11:58:29.162Z,303.75
2018-10-01T11:59:29.137Z,331.88
2018-10-01T12:00:29.108Z,303.75
2018-10-01T12:01:29.084Z,298.13
2018-10-01T12:02:29.058Z,298.13
2018-10-01T12:03:29.040Z,309.38
2018-10-01T12:04:29.004Z,309.38
2018-10-01T12:05:28.985Z,315.00
2018-10-01T12:06:28.956Z,315.00
2018-10-01T12:07:28.948Z,315.00
2018-10-01T12:08:28.904Z,315.00
2018-10-01T12:09:28.960Z,315.00
2018-10-01T12:10:28.981Z,320.63
2018-10-01T12:11:29.354Z,320.63
2018-10-01T12:12:28.797Z,320.63
2018-10-01T12:13:28.874Z,320.63
2018-10-01T12:14:28.741Z,326.25
2018-10-01T12:15:28.747Z,331.88
2018-10-01T12:16:28.691Z,331.88
2018-10-01T12:17:28.663Z,315.00
2018-10-01T12:18:28.637Z,309.38
2018-10-01T12:19:28.606Z,303.75
2018-10-01T12:20:28.583Z,303.75
2018-10-01T12:21:29.389Z,303.75
2018-10-01T12:22:29.347Z,298.13
2018-10-01T12:23:28.506Z,303.75
2018-10-01T12:24:28.479Z,298.13
2018-10-01T12:25:28.453Z,292.50
2018-10-01T12:26:29.343Z,292.50
2018-10-01T12:27:28.426Z,292.50
2018-10-01T12:28:28.372Z,292.50
2018-10-01T12:29:29.341Z,286.88
2018-10-01T12:30:28.321Z,286.88
2018-10-01T12:31:28.293Z,281.25
2018-10-01T12:32:28.264Z,281.25
2018-10-01T12:33:28.263Z,275.63
2018-10-01T12:34:28.216Z,270.00
2018-10-01T12:35:28.190Z,264.38
2018-10-01T12:36:28.160Z,264.38
2018-10-01T12:37:28.141Z,264.38
2018-10-01T12:38:28.110Z,253.13
2018-10-01T12:39:28.102Z,247.50
2018-10-01T12:40:28.070Z,247.50
2018-10-01T12:41:28.028Z,247.50
2018-10-01T12:42:28.025Z,247.50
2018-10-01T12:43:27.974Z,247.50
2018-10-01T12:44:27.962Z,253.13
2018-10-01T12:45:27.957Z,258.75
2018-10-01T12:46:27.993Z,258.75
2018-10-01T12:47:27.867Z,264.38
2018-10-01T12:48:27.841Z,270.00
2018-10-01T12:49:27.814Z,275.63
2018-10-01T12:50:27.887Z,281.25
2018-10-01T12:51:27.814Z,298.13
2018-10-01T12:52:27.736Z,331.88
2018-10-01T12:53:27.705Z,354.38
2018-10-01T12:54:27.758Z,568.13
2018-10-01T12:55:27.660Z,444.38
2018-10-01T12:56:27.666Z,438.75
2018-10-01T12:57:27.614Z,590.63
2018-10-01T12:58:27.569Z,365.63
2018-10-01T12:59:28.499Z,348.75